Arvonia, Virginia
Current Conditions -  °F | °C
As of 2:15 PM on Friday 28 Nov 2014 (Local Time) from KFVX Reporting Station
Clear Clear  
Wind Chill:   Ceiling: Unl
Heat Index:   Visibility: 10mi
Dew Point: -9°   Wind: 3mph
Humidity: 29%   Direction: 280°W
Pressure: 30.26"   Gusts: NA
Location:  37.68°N, 78.34°W
Report Text: KFVX 281915Z AUTO 28003KT 10SM CLR 08/M09 A3026 RMK AO2 T00831087
Loading
Personal Weather Stations






























Interactive Weather Map New forecast layout! Learn more

10-Day Weather Forecast

Advertisements
Track Severe Weather on mobile